Terminal Aerodrome Forecast
Issued by NWS Anchorage, AK

Home | Current Version | Previous Version | Text Only | Print | Product List | Glossary On
Versions: 1 2 3 4 5 6 7 8 9 10 11 12 13 14 15 16 17 18 19 20 21 22 23 24 25 26
000
FTAK31 PANC 231720
TAFANC
TAF
PANC 231720Z 2318/2424 03008KT P6SM SKC
     FM240400 36005KT P6SM FEW030 BKN070
     FM240900 36005KT 2SM -SN BR BKN020
     FM241200 36005KT 3/4SM -SN BR BKN012
     FM241700 VRB04KT 3SM -SN BR SCT012 BKN020
     FM242100 VRB04KT P6SM FEW005 SCT020 BKN035=

USA.gov is the U.S. government's official web portal to all federal, state and local government web resources and services.